Time;durP1;ratioP1;P1;durP2;ratioP2;P2;SDS_P1;SDS_P2;PMS_P1;PMS_P2;Temp;Humidity;BMP_temperature;BMP_pressure;BME280_temperature;BME280_humidity;BME280_pressure;Samples;Min_cycle;Max_cycle;Signal;HPM_P1;HPM_P2
2021/09/27 00:00:28;;;;;;;31.08;2.95;;;;;;;;;;5061762;28;20027;-39
2021/09/27 00:02:54;;;;;;;;;;;;;;;;;;5065550;28;20072;-40
2021/09/27 00:05:22;;;;;;;24.08;3.03;;;;;;;;;;5061686;28;19984;-39
2021/09/27 00:07:49;;;;;;;26.40;3.65;;;;;;;;;;5063742;28;20078;-39
2021/09/27 00:10:19;;;;;;;18.85;4.05;;;;;;;;;;5065315;28;20029;-39
2021/09/27 00:12:46;;;;;;;20.23;3.17;;;;;;;;;;5063457;28;20028;-39
2021/09/27 00:15:18;;;;;;;23.77;3.15;;;;;;;;;;5065457;28;20029;-39
2021/09/27 00:17:46;;;;;;;21.20;2.85;;;;;;;;;;5060510;28;20163;-38
2021/09/27 00:20:13;;;;;;;22.70;2.83;;;;;;;;;;5063802;28;20131;-38
2021/09/27 00:22:40;;;;;;;16.20;2.85;;;;;;;;;;5064631;28;20047;-39
2021/09/27 00:25:08;;;;;;;18.52;2.88;;;;;;;;;;5065827;28;20040;-40
2021/09/27 00:27:35;;;;;;;17.17;2.47;;;;;;;;;;5063044;28;20021;-38
2021/09/27 00:30:03;;;;;;;16.17;2.70;;;;;;;;;;5063251;28;20037;-38
2021/09/27 00:32:30;;;;;;;22.75;2.90;;;;;;;;;;5062176;28;20045;-38
2021/09/27 00:35:01;;;;;;;17.15;2.53;;;;;;;;;;5066501;28;20028;-39
2021/09/27 00:37:29;;;;;;;15.00;2.58;;;;;;;;;;5064975;28;20071;-39
2021/09/27 00:39:56;;;;;;;28.45;3.25;;;;;;;;;;5063621;28;20082;-39
2021/09/27 00:42:23;;;;;;;21.75;3.40;;;;;;;;;;5064709;28;20036;-40
2021/09/27 00:44:50;;;;;;;19.10;3.08;;;;;;;;;;5067543;28;20032;-40
2021/09/27 00:47:18;;;;;;;27.40;4.30;;;;;;;;;;5064328;28;20050;-39
2021/09/27 00:49:45;;;;;;;26.60;3.15;;;;;;;;;;5063708;28;20024;-38
2021/09/27 00:52:13;;;;;;;30.85;3.33;;;;;;;;;;5063326;28;20025;-39
2021/09/27 00:54:40;;;;;;;24.42;4.13;;;;;;;;;;5065018;28;20052;-38
2021/09/27 00:57:12;;;;;;;22.90;3.90;;;;;;;;;;5065883;28;20024;-38
2021/09/27 00:59:41;;;;;;;51.83;10.00;;;;;;;;;;5064716;28;20110;-38
2021/09/27 01:02:08;;;;;;;53.65;10.82;;;;;;;;;;5080557;28;20039;-38
2021/09/27 01:04:36;;;;;;;52.05;10.93;;;;;;;;;;5059981;28;20025;-39
2021/09/27 01:07:21;;;;;;;53.92;11.52;;;;;;;;;;5065759;28;20031;-38
2021/09/27 01:10:07;;;;;;;56.33;13.55;;;;;;;;;;5060123;28;20190;-38
2021/09/27 01:12:52;;;;;;;61.17;14.32;;;;;;;;;;5061511;28;20086;-39
2021/09/27 01:15:34;;;;;;;53.55;13.20;;;;;;;;;;5064819;28;20369;-39
2021/09/27 01:18:20;;;;;;;55.22;13.35;;;;;;;;;;5059038;28;20044;-39
2021/09/27 01:20:47;;;;;;;42.30;11.50;;;;;;;;;;5059853;28;20025;-39
2021/09/27 01:23:32;;;;;;;45.55;12.45;;;;;;;;;;5061361;28;20025;-39
2021/09/27 01:26:02;;;;;;;47.67;11.07;;;;;;;;;;5062601;28;20492;-38
2021/09/27 01:28:35;;;;;;;45.85;10.82;;;;;;;;;;5061720;28;20480;-39
2021/09/27 01:31:08;;;;;;;46.05;10.48;;;;;;;;;;5062442;28;20819;-39
2021/09/27 01:33:38;;;;;;;37.30;9.65;;;;;;;;;;5062671;28;20074;-38
2021/09/27 01:36:08;;;;;;;56.85;10.35;;;;;;;;;;5063705;28;20083;-39
2021/09/27 01:38:44;;;;;;;38.63;8.85;;;;;;;;;;5061839;28;20017;-38
2021/09/27 01:41:46;;;;;;;40.55;8.90;;;;;;;;;;5067101;28;20029;-39
2021/09/27 01:44:17;;;;;;;40.70;8.73;;;;;;;;;;5016771;28;20038;-39
2021/09/27 01:46:53;;;;;;;38.15;9.50;;;;;;;;;;5043447;28;20740;-40
2021/09/27 01:49:23;;;;;;;33.47;7.45;;;;;;;;;;5067801;28;20044;-39
2021/09/27 01:51:51;;;;;;;35.83;8.18;;;;;;;;;;5071052;28;20070;-41
2021/09/27 01:54:26;;;;;;;38.70;7.55;;;;;;;;;;5070859;28;20078;-39
2021/09/27 01:56:55;;;;;;;40.85;7.65;;;;;;;;;;5070649;28;20056;-41
2021/09/27 01:59:25;;;;;;;37.95;8.30;;;;;;;;;;5068879;28;20070;-42
2021/09/27 02:01:52;;;;;;;34.65;7.47;;;;;;;;;;5070506;28;20048;-40
2021/09/27 02:04:31;;;;;;;32.78;7.80;;;;;;;;;;5070552;28;20028;-43
2021/09/27 02:06:58;;;;;;;22.85;6.15;;;;;;;;;;5068948;28;20023;-42
2021/09/27 02:09:38;;;;;;;32.35;7.65;;;;;;;;;;5066862;28;20116;-40
2021/09/27 02:12:09;;;;;;;33.92;7.38;;;;;;;;;;5070552;28;20020;-41
2021/09/27 02:14:46;;;;;;;33.88;6.72;;;;;;;;;;5070175;28;20104;-41
2021/09/27 02:17:48;;;;;;;38.28;5.80;;;;;;;;;;5069610;28;20024;-38
2021/09/27 02:20:16;;;;;;;28.02;6.40;;;;;;;;;;5028538;28;20033;-40
2021/09/27 02:23:01;;;;;;;27.95;6.20;;;;;;;;;;5063867;28;20037;-42
2021/09/27 02:25:33;;;;;;;31.27;5.70;;;;;;;;;;5074671;28;20032;-38
2021/09/27 02:28:08;;;;;;;29.13;6.10;;;;;;;;;;5074480;28;20033;-42
2021/09/27 02:30:49;;;;;;;30.80;5.78;;;;;;;;;;5072925;28;20032;-41
2021/09/27 02:33:22;;;;;;;20.92;5.32;;;;;;;;;;5074292;28;20128;-42
2021/09/27 02:35:52;;;;;;;28.88;6.20;;;;;;;;;;5067108;28;20035;-41
2021/09/27 02:38:34;;;;;;;23.77;5.00;;;;;;;;;;5071880;28;20067;-40
2021/09/27 02:41:18;;;;;;;29.52;5.38;;;;;;;;;;5074267;28;20496;-38
2021/09/27 02:43:46;;;;;;;21.00;4.63;;;;;;;;;;5074036;28;20033;-39
2021/09/27 02:46:14;;;;;;;25.58;5.38;;;;;;;;;;5074499;28;20060;-39
2021/09/27 02:48:53;;;;;;;20.98;4.60;;;;;;;;;;5074328;28;20029;-39
2021/09/27 02:51:21;;;;;;;25.42;5.28;;;;;;;;;;5074590;28;20032;-38
2021/09/27 02:53:48;;;;;;;22.20;5.13;;;;;;;;;;5074233;28;20028;-41
2021/09/27 02:56:18;;;;;;;23.52;5.43;;;;;;;;;;5074541;28;20082;-40
2021/09/27 02:58:51;;;;;;;25.73;4.97;;;;;;;;;;5074019;28;20534;-39
2021/09/27 03:01:21;;;;;;;17.00;3.95;;;;;;;;;;5074497;28;20031;-41
2021/09/27 03:04:07;;;;;;;24.42;4.97;;;;;;;;;;5074362;28;20414;-38
2021/09/27 03:06:43;;;;;;;21.25;4.40;;;;;;;;;;5074411;28;20028;-40
2021/09/27 03:09:28;;;;;;;29.60;5.10;;;;;;;;;;5074182;28;20440;-40
2021/09/27 03:11:58;;;;;;;21.13;4.82;;;;;;;;;;5074122;28;20073;-41
2021/09/27 03:14:53;;;;;;;20.58;4.50;;;;;;;;;;5074428;28;20016;-39
2021/09/27 03:17:37;;;;;;;17.33;4.13;;;;;;;;;;5073716;28;20107;-39
2021/09/27 03:20:07;;;;;;;17.83;4.28;;;;;;;;;;5073990;28;20103;-39
2021/09/27 03:22:37;;;;;;;23.30;4.20;;;;;;;;;;5074020;28;20099;-39
2021/09/27 03:25:11;;;;;;;21.83;4.60;;;;;;;;;;5073926;28;20529;-39
2021/09/27 03:27:51;;;;;;;17.77;3.95;;;;;;;;;;5073261;28;20472;-37
2021/09/27 03:30:36;;;;;;;16.95;3.90;;;;;;;;;;5073988;28;20468;-39
2021/09/27 03:33:06;;;;;;;15.18;3.72;;;;;;;;;;5073224;28;20094;-40
2021/09/27 03:35:51;;;;;;;18.00;3.95;;;;;;;;;;5072979;28;20461;-38
2021/09/27 03:38:28;;;;;;;16.92;3.95;;;;;;;;;;5073241;28;20040;-40
2021/09/27 03:41:00;;;;;;;21.60;4.75;;;;;;;;;;5073863;28;20102;-41
2021/09/27 03:43:30;;;;;;;23.17;4.35;;;;;;;;;;5073144;28;20052;-40
2021/09/27 03:46:03;;;;;;;18.88;4.18;;;;;;;;;;5073744;28;20025;-41
2021/09/27 03:48:40;;;;;;;17.63;3.80;;;;;;;;;;5072807;28;20023;-39
2021/09/27 03:51:11;;;;;;;16.48;3.85;;;;;;;;;;5073762;28;20028;-40
2021/09/27 03:53:57;;;;;;;17.63;3.80;;;;;;;;;;5073182;28;20028;-40
2021/09/27 03:56:27;;;;;;;18.65;3.83;;;;;;;;;;5073715;28;20254;-37
2021/09/27 03:59:14;;;;;;;14.70;3.50;;;;;;;;;;5072724;28;20408;-38
2021/09/27 04:01:59;;;;;;;16.88;3.50;;;;;;;;;;5072874;28;20029;-38
2021/09/27 04:04:27;;;;;;;13.98;3.47;;;;;;;;;;5072638;28;20458;-39
2021/09/27 04:06:54;;;;;;;15.88;3.83;;;;;;;;;;5072974;28;20597;-40
2021/09/27 04:09:32;;;;;;;14.02;3.20;;;;;;;;;;5072495;28;20510;-40
2021/09/27 04:11:59;;;;;;;16.40;3.58;;;;;;;;;;5073105;28;20050;-39
2021/09/27 04:14:41;;;;;;;15.32;3.72;;;;;;;;;;5071267;28;20029;-39
2021/09/27 04:17:27;;;;;;;13.88;2.92;;;;;;;;;;5073118;28;20077;-40
2021/09/27 04:19:54;;;;;;;13.20;2.80;;;;;;;;;;5072281;28;20439;-39
2021/09/27 04:22:21;;;;;;;11.43;2.85;;;;;;;;;;5071565;28;20035;-39
2021/09/27 04:25:09;;;;;;;14.93;3.20;;;;;;;;;;5072370;28;20028;-39
2021/09/27 04:27:51;;;;;;;14.35;3.40;;;;;;;;;;5072935;28;20071;-38
2021/09/27 04:30:18;;;;;;;;;;;;;;;;;;5072675;28;20430;-40
2021/09/27 04:33:05;;;;;;;15.05;3.42;;;;;;;;;;5072162;28;19923;-40
2021/09/27 04:35:47;;;;;;;10.60;3.05;;;;;;;;;;5072085;28;20020;-40
2021/09/27 04:38:16;;;;;;;9.25;3.00;;;;;;;;;;5072679;28;20024;-39
2021/09/27 04:40:51;;;;;;;10.95;3.00;;;;;;;;;;5071705;28;20524;-39
2021/09/27 04:43:34;;;;;;;10.80;3.50;;;;;;;;;;5072607;28;20028;-41
2021/09/27 04:46:24;;;;;;;12.18;3.10;;;;;;;;;;5071997;28;20442;-39
2021/09/27 04:49:02;;;;;;;10.02;2.97;;;;;;;;;;5067220;28;20033;-39
2021/09/27 04:51:32;;;;;;;8.90;2.60;;;;;;;;;;5071994;28;20024;-40
2021/09/27 04:54:14;;;;;;;10.20;2.67;;;;;;;;;;5072184;28;20031;-40
2021/09/27 04:56:51;;;;;;;9.57;3.10;;;;;;;;;;5071758;28;20055;-39
2021/09/27 04:59:18;;;;;;;9.23;2.35;;;;;;;;;;5072018;28;20037;-38
2021/09/27 05:01:45;;;;;;;8.45;2.30;;;;;;;;;;5071609;28;20028;-40
2021/09/27 05:04:27;;;;;;;10.05;2.58;;;;;;;;;;5072125;28;20039;-38
2021/09/27 05:07:12;;;;;;;12.20;2.47;;;;;;;;;;5071511;28;20020;-39
2021/09/27 05:09:39;;;;;;;9.20;2.55;;;;;;;;;;5066961;28;20021;-38
2021/09/27 05:12:06;;;;;;;9.07;2.70;;;;;;;;;;5049368;28;20021;-38
2021/09/27 05:14:33;;;;;;;8.52;2.60;;;;;;;;;;5052113;28;20021;-39
2021/09/27 05:17:06;;;;;;;10.93;3.10;;;;;;;;;;5051368;28;20036;-39
2021/09/27 05:19:44;;;;;;;9.88;2.63;;;;;;;;;;5051620;28;20440;-41
2021/09/27 05:22:32;;;;;;;8.40;2.47;;;;;;;;;;5051132;28;20518;-41
2021/09/27 05:24:59;;;;;;;8.50;2.17;;;;;;;;;;5051969;28;20087;-39
2021/09/27 05:27:44;;;;;;;11.63;2.45;;;;;;;;;;5051122;28;20028;-40
2021/09/27 05:30:11;;;;;;;10.07;2.53;;;;;;;;;;5051655;28;20151;-41
2021/09/27 05:32:41;;;;;;;10.02;2.45;;;;;;;;;;5050795;28;20439;-40
2021/09/27 05:35:14;;;;;;;7.95;2.10;;;;;;;;;;5051494;28;20021;-40
2021/09/27 05:37:44;;;;;;;5.00;1.90;;;;;;;;;;5050980;28;20029;-39
2021/09/27 05:40:20;;;;;;;6.45;2.00;;;;;;;;;;5051306;28;20028;-39
2021/09/27 05:42:50;;;;;;;6.90;2.22;;;;;;;;;;5051131;28;20021;-41
2021/09/27 05:45:27;;;;;;;5.43;2.28;;;;;;;;;;5051465;28;20032;-39
2021/09/27 05:48:02;;;;;;;8.07;2.28;;;;;;;;;;5051105;28;20052;-38
2021/09/27 05:50:39;;;;;;;7.32;2.60;;;;;;;;;;5051075;28;20472;-39
2021/09/27 05:53:24;;;;;;;8.48;2.15;;;;;;;;;;5051312;28;20095;-38
2021/09/27 05:56:00;;;;;;;7.00;2.28;;;;;;;;;;5051388;28;20473;-40
2021/09/27 05:58:30;;;;;;;5.20;1.77;;;;;;;;;;5050990;28;20025;-40
2021/09/27 06:01:02;;;;;;;8.45;1.88;;;;;;;;;;5050685;28;20013;-40
2021/09/27 06:03:36;;;;;;;6.68;2.00;;;;;;;;;;5051031;28;20489;-40
2021/09/27 06:06:09;;;;;;;7.35;2.13;;;;;;;;;;5050965;28;20029;-39
2021/09/27 06:08:55;;;;;;;4.88;2.00;;;;;;;;;;5051690;28;20484;-39
2021/09/27 06:11:22;;;;;;;7.82;2.13;;;;;;;;;;5029652;28;20439;-39
2021/09/27 06:13:51;;;;;;;6.68;2.17;;;;;;;;;;5051050;28;20376;-38
2021/09/27 06:16:21;;;;;;;6.82;2.10;;;;;;;;;;5050743;28;20017;-38
2021/09/27 06:19:04;;;;;;;6.20;2.15;;;;;;;;;;5051388;28;20384;-39
2021/09/27 06:21:31;;;;;;;4.88;1.90;;;;;;;;;;5050567;28;20021;-41
2021/09/27 06:24:17;;;;;;;7.03;2.10;;;;;;;;;;5051150;28;20040;-39
2021/09/27 06:26:50;;;;;;;4.15;1.60;;;;;;;;;;5050795;28;20047;-38
2021/09/27 06:29:27;;;;;;;7.07;1.88;;;;;;;;;;5051246;28;20013;-38
2021/09/27 06:31:54;;;;;;;4.75;1.95;;;;;;;;;;5050294;28;20044;-38
2021/09/27 06:34:30;;;;;;;5.93;1.92;;;;;;;;;;5050143;28;20120;-39
2021/09/27 06:36:58;;;;;;;4.22;1.70;;;;;;;;;;5050680;28;20029;-37
2021/09/27 06:39:29;;;;;;;7.35;1.80;;;;;;;;;;5050903;28;20025;-38
2021/09/27 06:41:57;;;;;;;5.45;2.30;;;;;;;;;;5050313;28;20412;-37
2021/09/27 06:44:24;;;;;;;5.75;2.05;;;;;;;;;;5051104;28;20460;-37
2021/09/27 06:46:52;;;;;;;6.47;1.92;;;;;;;;;;5067477;28;20027;-39
2021/09/27 06:49:19;;;;;;;6.82;1.45;;;;;;;;;;5070893;28;20051;-39
2021/09/27 06:51:46;;;;;;;4.35;1.67;;;;;;;;;;5070080;28;20017;-39
2021/09/27 06:54:14;;;;;;;3.97;1.52;;;;;;;;;;5071045;28;20009;-40
2021/09/27 06:56:41;;;;;;;4.40;1.40;;;;;;;;;;5070736;28;20021;-37
2021/09/27 06:59:08;;;;;;;7.13;1.70;;;;;;;;;;5068271;28;20101;-39
2021/09/27 07:01:35;;;;;;;6.45;1.83;;;;;;;;;;5050676;28;20021;-40
2021/09/27 07:04:03;;;;;;;8.90;1.85;;;;;;;;;;5050157;28;20063;-38
2021/09/27 07:06:29;;;;;;;7.20;1.65;;;;;;;;;;5050948;28;20017;-39
2021/09/27 07:08:57;;;;;;;3.28;1.45;;;;;;;;;;5050879;28;20025;-39
2021/09/27 07:11:24;;;;;;;6.10;1.73;;;;;;;;;;5054114;28;20017;-38
2021/09/27 07:13:51;;;;;;;6.20;1.80;;;;;;;;;;5053849;28;20013;-40
2021/09/27 07:16:18;;;;;;;4.20;1.60;;;;;;;;;;5054370;28;20021;-39
2021/09/27 07:18:45;;;;;;;6.30;1.67;;;;;;;;;;5053609;28;20017;-38
2021/09/27 07:21:12;;;;;;;4.90;1.52;;;;;;;;;;5054123;28;20017;-39
2021/09/27 07:23:40;;;;;;;5.13;1.40;;;;;;;;;;5053291;28;20018;-39
2021/09/27 07:26:07;;;;;;;6.50;1.38;;;;;;;;;;5054071;28;20029;-39
2021/09/27 07:28:35;;;;;;;3.75;1.50;;;;;;;;;;5053600;28;20102;-40
2021/09/27 07:31:02;;;;;;;5.63;1.45;;;;;;;;;;5054270;28;20025;-38
2021/09/27 07:33:29;;;;;;;4.45;1.60;;;;;;;;;;5052962;28;20128;-38
2021/09/27 07:35:57;;;;;;;3.88;1.80;;;;;;;;;;5054707;28;20602;-39
2021/09/27 07:38:24;;;;;;;4.93;1.63;;;;;;;;;;5071657;28;20494;-38
2021/09/27 07:40:52;;;;;;;5.43;1.50;;;;;;;;;;5073098;28;20025;-39
2021/09/27 07:43:20;;;;;;;4.82;1.70;;;;;;;;;;5073355;28;20379;-38
2021/09/27 07:45:47;;;;;;;4.30;1.40;;;;;;;;;;5073289;28;20067;-39
2021/09/27 07:48:16;;;;;;;5.75;1.70;;;;;;;;;;5073446;28;20095;-40
2021/09/27 07:50:45;;;;;;;5.43;1.45;;;;;;;;;;5073265;28;20039;-39
2021/09/27 07:53:12;;;;;;;4.88;1.63;;;;;;;;;;5073424;28;20024;-39
2021/09/27 07:55:39;;;;;;;6.03;1.60;;;;;;;;;;5072899;28;20023;-39
2021/09/27 07:58:06;;;;;;;5.47;1.35;;;;;;;;;;5073582;28;20016;-39
2021/09/27 08:00:33;;;;;;;4.47;1.50;;;;;;;;;;5072934;28;20062;-39
2021/09/27 08:03:00;;;;;;;6.53;1.50;;;;;;;;;;5073035;28;20033;-38
2021/09/27 08:05:30;;;;;;;5.53;1.40;;;;;;;;;;5072896;28;20040;-38
2021/09/27 08:07:57;;;;;;;7.07;1.30;;;;;;;;;;5071523;28;20035;-39
2021/09/27 08:10:25;;;;;;;5.03;1.50;;;;;;;;;;5073381;28;20023;-39
2021/09/27 08:12:52;;;;;;;4.60;1.35;;;;;;;;;;5072433;28;20096;-41
2021/09/27 08:15:21;;;;;;;7.18;1.52;;;;;;;;;;5072907;28;20020;-39
2021/09/27 08:17:51;;;;;;;6.57;1.58;;;;;;;;;;5072598;28;20029;-39
2021/09/27 08:20:20;;;;;;;2.60;1.23;;;;;;;;;;5072358;28;20028;-38
2021/09/27 08:22:47;;;;;;;3.63;1.48;;;;;;;;;;5072260;28;20078;-38
2021/09/27 08:25:15;;;;;;;3.67;1.40;;;;;;;;;;5072956;28;20039;-38
2021/09/27 08:27:44;;;;;;;3.22;1.75;;;;;;;;;;5072144;28;20032;-39
2021/09/27 08:30:15;;;;;;;4.97;1.20;;;;;;;;;;5072562;28;20028;-38
2021/09/27 08:32:43;;;;;;;3.95;1.25;;;;;;;;;;5071930;28;20049;-38
2021/09/27 08:35:10;;;;;;;5.10;1.42;;;;;;;;;;5072941;28;20142;-38
2021/09/27 08:37:38;;;;;;;3.45;1.08;;;;;;;;;;5071960;28;20553;-39
2021/09/27 08:40:05;;;;;;;3.65;1.40;;;;;;;;;;5072650;28;20097;-38
2021/09/27 08:42:38;;;;;;;4.10;1.65;;;;;;;;;;5072504;28;20012;-39
2021/09/27 08:45:15;;;;;;;3.33;1.15;;;;;;;;;;5071864;28;20039;-40
2021/09/27 08:47:58;;;;;;;3.80;1.50;;;;;;;;;;5072330;28;20032;-40
2021/09/27 08:50:31;;;;;;;3.35;1.20;;;;;;;;;;5072247;28;20028;-41
2021/09/27 08:52:59;;;;;;;4.68;1.40;;;;;;;;;;5072191;28;20115;-38
2021/09/27 08:55:27;;;;;;;5.25;1.23;;;;;;;;;;5071587;28;20020;-40
2021/09/27 08:58:00;;;;;;;3.00;1.30;;;;;;;;;;5072379;28;20024;-40
2021/09/27 09:00:32;;;;;;;5.10;1.27;;;;;;;;;;5071495;28;20013;-38
2021/09/27 09:02:59;;;;;;;5.63;1.48;;;;;;;;;;5072269;28;20067;-39
2021/09/27 09:05:37;;;;;;;3.63;1.20;;;;;;;;;;5071308;28;20086;-39
2021/09/27 09:08:07;;;;;;;5.65;1.83;;;;;;;;;;5071814;28;20020;-39
2021/09/27 09:10:43;;;;;;;3.38;1.20;;;;;;;;;;5071458;28;20019;-39
2021/09/27 09:13:12;;;;;;;2.90;0.95;;;;;;;;;;5072110;28;20021;-38
2021/09/27 09:15:41;;;;;;;7.18;1.40;;;;;;;;;;5071248;28;20480;-39
2021/09/27 09:18:11;;;;;;;3.72;1.23;;;;;;;;;;5071916;28;20052;-40
2021/09/27 09:20:43;;;;;;;3.47;1.20;;;;;;;;;;5071244;28;20024;-40
2021/09/27 09:23:14;;;;;;;4.38;1.58;;;;;;;;;;5070565;28;20028;-39
2021/09/27 09:25:41;;;;;;;6.47;1.45;;;;;;;;;;5069783;28;20830;-41
2021/09/27 09:28:10;;;;;;;2.58;1.10;;;;;;;;;;5071803;28;20021;-38
2021/09/27 09:30:37;;;;;;;3.53;1.20;;;;;;;;;;5071643;28;20031;-40
2021/09/27 09:33:04;;;;;;;3.65;1.27;;;;;;;;;;5069339;28;20063;-40
2021/09/27 09:35:33;;;;;;;3.88;1.02;;;;;;;;;;5071205;28;20025;-40
2021/09/27 09:38:07;;;;;;;6.15;1.23;;;;;;;;;;5071405;28;20025;-42
2021/09/27 09:40:54;;;;;;;2.55;1.10;;;;;;;;;;5071787;28;20047;-41
2021/09/27 09:43:32;;;;;;;6.03;1.77;;;;;;;;;;5070437;28;20029;-40
2021/09/27 09:46:04;;;;;;;4.45;1.25;;;;;;;;;;5071096;28;20032;-42
2021/09/27 09:48:32;;;;;;;5.93;1.40;;;;;;;;;;5070243;28;20024;-41
2021/09/27 09:51:01;;;;;;;4.18;1.60;;;;;;;;;;5069293;28;20598;-39
2021/09/27 09:53:33;;;;;;;4.57;1.20;;;;;;;;;;5070124;28;20016;-39
2021/09/27 09:56:10;;;;;;;4.32;1.40;;;;;;;;;;5070640;28;20027;-40
2021/09/27 09:58:42;;;;;;;12.18;1.40;;;;;;;;;;5070276;28;20032;-40
2021/09/27 10:01:23;;;;;;;5.07;1.27;;;;;;;;;;5071080;28;20020;-40
2021/09/27 10:04:02;;;;;;;6.35;1.48;;;;;;;;;;5070348;28;20727;-40
2021/09/27 10:06:32;;;;;;;3.97;1.05;;;;;;;;;;5068585;28;20520;-40
2021/09/27 10:09:00;;;;;;;5.90;1.20;;;;;;;;;;5070279;28;20380;-40
2021/09/27 10:11:30;;;;;;;7.45;1.50;;;;;;;;;;5070976;28;20028;-41
2021/09/27 10:13:57;;;;;;;7.75;1.40;;;;;;;;;;5070754;28;20069;-39
2021/09/27 10:16:27;;;;;;;6.10;1.10;;;;;;;;;;5071183;28;20056;-40
2021/09/27 10:18:54;;;;;;;4.25;1.50;;;;;;;;;;5070864;28;20158;-39
2021/09/27 10:21:28;;;;;;;4.45;1.17;;;;;;;;;;5071082;28;20021;-40
2021/09/27 10:23:59;;;;;;;5.07;1.40;;;;;;;;;;5070756;28;20039;-40
2021/09/27 10:26:29;;;;;;;8.50;1.20;;;;;;;;;;5071163;28;20157;-40
2021/09/27 10:29:00;;;;;;;8.77;1.48;;;;;;;;;;5071216;28;20584;-40
2021/09/27 10:31:28;;;;;;;7.07;1.27;;;;;;;;;;5071023;28;20100;-41
2021/09/27 10:33:58;;;;;;;11.00;1.48;;;;;;;;;;5070469;28;20049;-40
2021/09/27 10:36:37;;;;;;;6.05;1.73;;;;;;;;;;5071043;28;20103;-40
2021/09/27 10:39:05;;;;;;;4.05;1.10;;;;;;;;;;5070768;28;20024;-39
2021/09/27 10:41:43;;;;;;;6.45;1.27;;;;;;;;;;5070851;28;20488;-41
2021/09/27 10:44:25;;;;;;;10.18;1.77;;;;;;;;;;5073190;28;20032;-39
2021/09/27 10:46:52;;;;;;;6.57;1.50;;;;;;;;;;5074476;28;20082;-40
2021/09/27 10:49:32;;;;;;;7.85;1.30;;;;;;;;;;5074588;28;20025;-38
2021/09/27 10:52:17;;;;;;;6.10;1.50;;;;;;;;;;5074530;28;20017;-40
2021/09/27 10:54:45;;;;;;;5.22;1.45;;;;;;;;;;5074633;28;20031;-39
2021/09/27 10:57:17;;;;;;;9.30;1.70;;;;;;;;;;5074000;28;20012;-39
2021/09/27 10:59:59;;;;;;;11.27;2.03;;;;;;;;;;5074482;28;20028;-40
2021/09/27 11:02:29;;;;;;;13.10;2.42;;;;;;;;;;5074018;28;20020;-39
2021/09/27 11:05:03;;;;;;;6.03;1.27;;;;;;;;;;5074357;28;20032;-41
2021/09/27 11:07:36;;;;;;;7.55;1.27;;;;;;;;;;5073773;28;20020;-39
2021/09/27 11:10:13;;;;;;;6.47;1.50;;;;;;;;;;5074201;28;20029;-40
2021/09/27 11:12:43;;;;;;;6.97;1.63;;;;;;;;;;5073754;28;20021;-41
2021/09/27 11:15:15;;;;;;;6.28;1.15;;;;;;;;;;5073548;28;20416;-39
2021/09/27 11:18:02;;;;;;;8.85;1.17;;;;;;;;;;5072895;28;20103;-39
2021/09/27 11:20:57;;;;;;;9.05;2.10;;;;;;;;;;5073751;28;20032;-40
2021/09/27 11:23:29;;;;;;;7.20;1.38;;;;;;;;;;5062801;28;20067;-41
2021/09/27 11:26:14;;;;;;;11.00;1.48;;;;;;;;;;5052826;28;20496;-42
2021/09/27 11:28:46;;;;;;;14.63;1.67;;;;;;;;;;5061068;28;20150;-39
2021/09/27 11:31:13;;;;;;;;;;;;;;;;;;5054851;28;20013;-40
2021/09/27 11:33:40;;;;;;;9.43;1.35;;;;;;;;;;5052952;28;19956;-58
2021/09/27 11:36:23;;;;;;;7.45;1.40;;;;;;;;;;5059256;28;20516;-41
2021/09/27 11:38:51;;;;;;;8.45;1.63;;;;;;;;;;5072117;28;20468;-41
2021/09/27 11:41:18;;;;;;;3.58;1.40;;;;;;;;;;5071905;28;20020;-40
2021/09/27 11:44:03;;;;;;;8.00;1.35;;;;;;;;;;5072118;28;20031;-41
2021/09/27 11:46:53;;;;;;;8.80;1.70;;;;;;;;;;5072652;28;20020;-39
2021/09/27 11:52:07;;;;;;;6.10;1.27;;;;;;;;;;5048279;28;20021;-39
2021/09/27 11:54:54;;;;;;;12.27;1.48;;;;;;;;;;5051220;28;20025;-41
2021/09/27 11:57:40;;;;;;;5.00;1.40;;;;;;;;;;5048256;28;20033;-44
2021/09/27 12:00:09;;;;;;;8.68;1.67;;;;;;;;;;5056905;28;20024;-40
2021/09/27 12:02:48;;;;;;;8.45;1.63;;;;;;;;;;5070865;28;20025;-41
2021/09/27 12:05:21;;;;;;;10.65;1.52;;;;;;;;;;5067319;28;20111;-38
2021/09/27 12:07:47;;;;;;;;;;;;;;;;;;5072004;28;20020;-39
2021/09/27 12:10:14;;;;;;;11.23;1.90;;;;;;;;;;5071524;28;19950;-40
2021/09/27 12:12:51;;;;;;;7.25;1.58;;;;;;;;;;5070710;28;20081;-42
2021/09/27 12:15:21;;;;;;;24.25;1.77;;;;;;;;;;5069129;28;20047;-41
2021/09/27 12:17:48;;;;;;;7.60;1.77;;;;;;;;;;5070266;28;20492;-38
2021/09/27 12:20:17;;;;;;;6.55;1.50;;;;;;;;;;5070837;28;20032;-39
2021/09/27 12:22:48;;;;;;;9.15;1.80;;;;;;;;;;5071773;28;20016;-42
2021/09/27 12:25:20;;;;;;;8.30;1.52;;;;;;;;;;5070712;28;20194;-37
2021/09/27 12:27:49;;;;;;;7.18;1.52;;;;;;;;;;5070397;28;20025;-38
2021/09/27 12:30:16;;;;;;;12.77;1.83;;;;;;;;;;5069091;28;20384;-39
2021/09/27 12:32:53;;;;;;;10.75;1.42;;;;;;;;;;5071609;28;20051;-37
2021/09/27 12:35:23;;;;;;;6.22;1.85;;;;;;;;;;5071371;28;20033;-41
2021/09/27 12:37:54;;;;;;;9.48;1.50;;;;;;;;;;5068879;28;20388;-44
2021/09/27 12:40:23;;;;;;;6.50;1.70;;;;;;;;;;5065840;28;20028;-42
2021/09/27 12:42:53;;;;;;;9.48;1.75;;;;;;;;;;5070018;28;20033;-42
2021/09/27 12:45:41;;;;;;;11.93;1.48;;;;;;;;;;5070781;28;20068;-46
2021/09/27 12:48:11;;;;;;;11.35;2.15;;;;;;;;;;5071236;28;20453;-39
2021/09/27 12:50:40;;;;;;;8.68;1.42;;;;;;;;;;5068153;28;20070;-43
2021/09/27 12:53:09;;;;;;;5.85;1.30;;;;;;;;;;5065217;28;20028;-42
2021/09/27 12:55:42;;;;;;;7.95;1.50;;;;;;;;;;5070977;28;20448;-39
2021/09/27 12:58:28;;;;;;;13.27;1.67;;;;;;;;;;5071284;28;20048;-39
2021/09/27 13:00:55;;;;;;;8.93;1.42;;;;;;;;;;5071821;28;20087;-40
2021/09/27 13:03:25;;;;;;;6.65;1.80;;;;;;;;;;5071172;28;20032;-41
2021/09/27 13:06:14;;;;;;;10.95;1.83;;;;;;;;;;5071135;28;20037;-40
2021/09/27 13:08:44;;;;;;;6.53;1.40;;;;;;;;;;5071406;28;20112;-38
2021/09/27 13:11:29;;;;;;;5.82;1.35;;;;;;;;;;5072289;28;20371;-37
2021/09/27 13:13:59;;;;;;;9.57;2.22;;;;;;;;;;5066124;28;20029;-39
2021/09/27 13:16:27;;;;;;;8.38;1.67;;;;;;;;;;5051043;28;20025;-39
2021/09/27 13:18:54;;;;;;;10.32;1.60;;;;;;;;;;5050009;28;20040;-39
2021/09/27 13:21:26;;;;;;;7.53;1.20;;;;;;;;;;5063724;28;20492;-40
2021/09/27 13:23:59;;;;;;;9.25;1.65;;;;;;;;;;5070473;28;20055;-39
2021/09/27 13:26:26;;;;;;;8.88;1.52;;;;;;;;;;5069916;28;20078;-41
2021/09/27 13:28:58;;;;;;;11.68;1.83;;;;;;;;;;5069628;28;20082;-42
2021/09/27 13:31:27;;;;;;;8.98;1.90;;;;;;;;;;5071132;28;20063;-40
2021/09/27 13:33:58;;;;;;;11.02;1.75;;;;;;;;;;5069093;28;20500;-40
2021/09/27 13:36:28;;;;;;;7.50;1.65;;;;;;;;;;5070612;28;20103;-38
2021/09/27 13:39:02;;;;;;;9.73;1.95;;;;;;;;;;5068932;28;20013;-39
2021/09/27 13:41:46;;;;;;;15.75;1.58;;;;;;;;;;5071052;28;20028;-39
2021/09/27 13:44:28;;;;;;;9.43;1.63;;;;;;;;;;5070053;28;20032;-39
2021/09/27 13:46:58;;;;;;;8.45;1.55;;;;;;;;;;5070929;28;20040;-39
2021/09/27 13:49:29;;;;;;;17.80;3.10;;;;;;;;;;5068680;28;20044;-41
2021/09/27 13:51:56;;;;;;;10.98;1.83;;;;;;;;;;5070620;28;20024;-45
2021/09/27 13:54:23;;;;;;;15.25;2.10;;;;;;;;;;5070629;28;20409;-39
2021/09/27 13:56:50;;;;;;;15.43;2.00;;;;;;;;;;5070027;28;20021;-39
2021/09/27 13:59:19;;;;;;;16.35;2.22;;;;;;;;;;5070814;28;20687;-42
2021/09/27 14:01:47;;;;;;;14.00;1.85;;;;;;;;;;5069568;28;20031;-39
2021/09/27 14:04:14;;;;;;;20.92;1.90;;;;;;;;;;5071092;28;20386;-40
2021/09/27 14:06:41;;;;;;;13.95;2.25;;;;;;;;;;5070134;28;20099;-40
2021/09/27 14:09:08;;;;;;;17.95;2.35;;;;;;;;;;5070940;28;20028;-41
2021/09/27 14:11:35;;;;;;;20.60;2.15;;;;;;;;;;5068501;28;20555;-47
2021/09/27 14:14:04;;;;;;;15.32;2.08;;;;;;;;;;5068497;28;20094;-47
2021/09/27 14:16:31;;;;;;;22.88;2.70;;;;;;;;;;5068868;28;20037;-47
2021/09/27 14:18:58;;;;;;;15.98;2.33;;;;;;;;;;5071456;28;20024;-47
2021/09/27 14:21:26;;;;;;;17.65;2.67;;;;;;;;;;5072512;28;20020;-47
2021/09/27 14:23:55;;;;;;;23.30;2.97;;;;;;;;;;5072749;28;20546;-48
2021/09/27 14:26:23;;;;;;;16.77;2.80;;;;;;;;;;5074787;28;20165;-48
2021/09/27 14:28:50;;;;;;;14.90;2.70;;;;;;;;;;5074289;28;20079;-48
2021/09/27 14:31:17;;;;;;;25.45;3.20;;;;;;;;;;5073320;28;20028;-50
2021/09/27 14:33:44;;;;;;;21.45;2.78;;;;;;;;;;5073313;28;20044;-47
2021/09/27 14:36:11;;;;;;;16.10;2.70;;;;;;;;;;5066406;28;20066;-50
2021/09/27 14:38:39;;;;;;;27.35;3.35;;;;;;;;;;5073411;28;20082;-49
2021/09/27 14:41:06;;;;;;;22.60;3.42;;;;;;;;;;5072920;28;20024;-39
2021/09/27 14:43:33;;;;;;;20.15;2.38;;;;;;;;;;5060260;28;20025;-41
2021/09/27 14:46:00;;;;;;;16.02;2.67;;;;;;;;;;5065839;28;20029;-43
2021/09/27 14:48:28;;;;;;;19.08;2.60;;;;;;;;;;5072171;28;20039;-42
2021/09/27 14:50:55;;;;;;;17.20;2.60;;;;;;;;;;5065724;28;20020;-44
2021/09/27 14:53:25;;;;;;;23.33;3.03;;;;;;;;;;5062346;28;20103;-41
2021/09/27 14:55:53;;;;;;;20.38;3.42;;;;;;;;;;5065769;28;20025;-39
2021/09/27 14:58:22;;;;;;;22.15;2.85;;;;;;;;;;5061741;28;20544;-41
2021/09/27 15:00:50;;;;;;;18.73;2.80;;;;;;;;;;5062883;28;20499;-43
2021/09/27 15:03:18;;;;;;;14.32;2.58;;;;;;;;;;5064032;28;20109;-41
2021/09/27 15:05:46;;;;;;;16.77;2.92;;;;;;;;;;5066549;28;20033;-42
2021/09/27 15:08:13;;;;;;;20.27;2.45;;;;;;;;;;5066793;28;20020;-42
2021/09/27 15:10:41;;;;;;;16.17;2.60;;;;;;;;;;5061520;28;20025;-42